createdAt,value
2019-02-23T20:12:55.126Z,27.94
2019-02-23T20:13:58.394Z,28.16
2019-02-23T20:15:01.088Z,28.81
2019-02-23T20:16:04.392Z,29.19
2019-02-23T20:17:07.653Z,26.25
2019-02-23T20:18:10.978Z,24.31
2019-02-23T20:19:14.247Z,21.70
2019-02-23T20:20:17.505Z,19.98
2019-02-23T20:21:20.767Z,21.48
2019-02-23T20:22:24.031Z,22.58
2019-02-23T20:23:27.643Z,21.70
2019-02-23T20:24:30.910Z,21.61
2019-02-23T20:25:34.167Z,20.92
2019-02-23T20:26:37.439Z,21.07
2019-02-23T20:27:40.761Z,25.45
2019-02-23T20:28:44.073Z,22.54
2019-02-23T20:29:47.521Z,23.48
2019-02-23T20:30:50.809Z,24.83
2019-02-23T20:31:54.089Z,23.76
2019-02-23T20:32:57.365Z,24.96
2019-02-23T20:34:00.689Z,23.77
2019-02-23T20:35:04.049Z,23.07
2019-02-23T20:36:07.429Z,23.24
2019-02-23T20:37:10.711Z,22.84
2019-02-23T20:38:13.987Z,24.64
2019-02-23T20:39:17.319Z,23.92
2019-02-23T20:40:20.865Z,24.87
2019-02-23T20:41:24.156Z,24.60
2019-02-23T20:42:27.444Z,24.35
2019-02-23T20:43:30.714Z,24.05
2019-02-23T20:44:34.140Z,24.52
2019-02-23T20:45:37.404Z,23.36
2019-02-23T20:46:40.978Z,26.77
2019-02-23T20:47:44.248Z,25.63
2019-02-23T20:48:47.575Z,25.03
2019-02-23T20:49:50.967Z,25.03
2019-02-23T20:50:54.225Z,23.27
2019-02-23T20:51:57.486Z,24.50
2019-02-23T20:53:00.787Z,23.50
2019-02-23T20:54:04.173Z,24.12
2019-02-23T20:55:08.807Z,24.06
2019-02-23T20:56:12.070Z,24.54
2019-02-23T20:57:15.330Z,24.38
2019-02-23T20:58:18.592Z,23.76
2019-02-23T20:59:21.852Z,23.42
2019-02-23T21:00:26.760Z,23.53
2019-02-23T21:01:30.173Z,24.69
2019-02-23T21:02:33.441Z,21.61
2019-02-23T21:03:36.747Z,23.02
2019-02-23T21:04:40.071Z,21.39
2019-02-23T21:05:43.333Z,21.43
2019-02-23T21:06:46.605Z,23.51
2019-02-23T21:07:49.870Z,22.32
2019-02-23T21:08:53.185Z,21.66
2019-02-23T21:09:56.483Z,20.96
2019-02-23T21:10:59.759Z,21.63
2019-02-23T21:12:03.021Z,21.49
2019-02-23T21:13:06.286Z,21.28
2019-02-23T21:14:09.600Z,21.33
2019-02-23T21:15:12.877Z,21.24
2019-02-23T21:16:16.142Z,22.00
2019-02-23T21:17:19.445Z,21.88
2019-02-23T21:18:22.718Z,23.54
2019-02-23T21:19:26.029Z,17.39
2019-02-23T21:20:29.294Z,15.42
2019-02-23T21:21:34.209Z,19.26
2019-02-23T21:22:37.943Z,19.69
2019-02-23T21:23:41.219Z,21.41
2019-02-23T21:24:44.533Z,22.88
2019-02-23T21:25:50.402Z,22.43
2019-02-23T21:26:53.706Z,21.45
2019-02-23T21:27:56.977Z,22.99
2019-02-23T21:29:00.237Z,24.56
2019-02-23T21:30:04.117Z,22.93
2019-02-23T21:31:07.388Z,24.96
2019-02-23T21:32:10.662Z,22.68
2019-02-23T21:33:13.931Z,23.00
2019-02-23T21:34:17.199Z,19.93
2019-02-23T21:35:20.509Z,19.15
2019-02-23T21:36:23.775Z,21.07
2019-02-23T21:37:27.080Z,21.25
2019-02-23T21:38:30.369Z,21.54
2019-02-23T21:39:33.641Z,22.11
2019-02-23T21:40:37.066Z,22.11
2019-02-23T21:41:40.334Z,23.02
2019-02-23T21:42:43.803Z,21.73
2019-02-23T21:43:47.198Z,22.33
2019-02-23T21:44:50.480Z,22.11
2019-02-23T21:45:53.795Z,21.70
2019-02-23T21:46:57.071Z,22.02
2019-02-23T21:48:00.338Z,22.41
2019-02-23T21:49:03.608Z,23.87
2019-02-23T21:50:09.117Z,24.38
2019-02-23T21:51:12.438Z,23.34
2019-02-23T21:52:15.716Z,23.10
2019-02-23T21:53:19.103Z,22.55
2019-02-23T21:54:22.587Z,23.42
2019-02-23T21:55:25.873Z,22.99
2019-02-23T21:56:29.198Z,23.15
2019-02-23T21:57:32.492Z,22.95
2019-02-23T21:58:35.750Z,23.63
2019-02-23T21:59:39.019Z,23.52
2019-02-23T22:00:42.299Z,22.19
2019-02-23T22:01:45.609Z,21.05
2019-02-23T22:02:48.885Z,22.20
2019-02-23T22:03:52.233Z,21.12
2019-02-23T22:04:55.493Z,21.71
2019-02-23T22:05:58.762Z,21.05
2019-02-23T22:07:02.035Z,21.74
2019-02-23T22:08:05.550Z,21.47
2019-02-23T22:09:08.833Z,19.32
2019-02-23T22:10:12.189Z,15.27
2019-02-23T22:11:15.531Z,20.12
2019-02-23T22:12:18.816Z,19.80
2019-02-23T22:13:22.093Z,19.98
2019-02-23T22:14:25.393Z,19.62
2019-02-23T22:15:29.001Z,19.74
2019-02-23T22:16:32.265Z,19.07
2019-02-23T22:17:35.535Z,19.31
2019-02-23T22:18:39.129Z,18.84
2019-02-23T22:19:42.385Z,19.24
2019-02-23T22:20:45.745Z,19.45
2019-02-23T22:21:49.008Z,19.54
2019-02-23T22:22:52.380Z,19.76
2019-02-23T22:23:55.642Z,20.03
2019-02-23T22:24:59.030Z,21.33
2019-02-23T22:26:02.351Z,21.30
2019-02-23T22:27:05.598Z,21.12
2019-02-23T22:28:08.880Z,20.74
2019-02-23T22:29:12.175Z,20.62
2019-02-23T22:30:15.553Z,20.46
2019-02-23T22:31:18.858Z,20.48
2019-02-23T22:32:22.232Z,20.44
2019-02-23T22:33:25.502Z,20.56
2019-02-23T22:34:28.770Z,19.56
2019-02-23T22:35:32.175Z,19.18
2019-02-23T22:36:35.797Z,19.86
